createdAt,value
2018-12-05T00:01:49.325Z,6.30
2018-12-05T00:04:24.180Z,6.30
2018-12-05T00:06:58.778Z,6.30
2018-12-05T00:09:33.406Z,6.40
2018-12-05T00:12:08.049Z,6.30
2018-12-05T00:14:42.977Z,6.40
2018-12-05T00:17:17.578Z,6.30
2018-12-05T00:19:52.117Z,6.40
2018-12-05T00:22:26.741Z,6.40
2018-12-05T00:25:01.513Z,6.40
2018-12-05T00:27:36.198Z,6.40
2018-12-05T00:30:11.195Z,6.40
2018-12-05T00:32:45.981Z,6.40
2018-12-05T00:35:20.626Z,6.40
2018-12-05T00:37:55.217Z,6.40
2018-12-05T00:40:30.164Z,6.30
2018-12-05T00:43:04.779Z,6.30
2018-12-05T00:45:39.309Z,6.40
2018-12-05T00:48:14.109Z,6.40
2018-12-05T00:50:48.868Z,6.40
2018-12-05T00:53:23.679Z,6.40
2018-12-05T00:55:58.290Z,6.40
2018-12-05T00:58:33.056Z,6.40
2018-12-05T01:01:07.645Z,6.40
2018-12-05T01:03:42.273Z,6.30
2018-12-05T01:06:17.362Z,6.20
2018-12-05T01:08:51.929Z,6.20
2018-12-05T01:11:26.478Z,6.20
2018-12-05T01:14:01.181Z,6.20
2018-12-05T01:16:35.740Z,6.20
2018-12-05T01:19:10.429Z,6.00
2018-12-05T01:21:45.044Z,6.20
2018-12-05T01:24:19.869Z,6.10
2018-12-05T01:26:54.806Z,6.10
2018-12-05T01:29:29.466Z,6.10
2018-12-05T01:32:04.061Z,6.00
2018-12-05T01:34:38.682Z,6.00
2018-12-05T01:37:13.413Z,5.70
2018-12-05T01:39:48.897Z,5.80
2018-12-05T01:42:23.590Z,5.80
2018-12-05T01:44:58.134Z,5.90
2018-12-05T01:47:32.743Z,5.80
2018-12-05T01:50:07.455Z,5.90
2018-12-05T01:52:42.041Z,5.40
2018-12-05T01:55:16.800Z,5.50
2018-12-05T01:57:51.890Z,5.50
2018-12-05T02:00:26.637Z,5.60
2018-12-05T02:03:01.288Z,5.80
2018-12-05T02:05:36.141Z,5.80
2018-12-05T02:08:10.753Z,5.90
2018-12-05T02:10:45.383Z,5.90
2018-12-05T02:13:20.014Z,5.90
2018-12-05T02:15:54.625Z,5.90
2018-12-05T02:18:29.244Z,5.90
2018-12-05T02:21:03.972Z,5.90
2018-12-05T02:23:38.564Z,5.80
2018-12-05T02:26:13.249Z,5.70
2018-12-05T02:28:47.959Z,5.70
2018-12-05T02:31:22.629Z,5.40
2018-12-05T02:33:57.212Z,5.50
2018-12-05T02:36:31.771Z,5.60
2018-12-05T02:39:08.414Z,5.60
2018-12-05T02:41:43.075Z,5.70
2018-12-05T02:44:17.680Z,5.70
2018-12-05T02:46:52.269Z,5.60
2018-12-05T02:49:26.897Z,5.60
2018-12-05T02:52:01.636Z,5.60
2018-12-05T02:54:36.596Z,5.60
2018-12-05T02:57:11.197Z,5.50
2018-12-05T02:59:45.836Z,5.50
2018-12-05T03:02:20.380Z,5.20
2018-12-05T03:04:55.066Z,5.10
2018-12-05T03:07:29.881Z,5.10
2018-12-05T03:10:05.602Z,5.10
2018-12-05T03:12:40.304Z,5.10
2018-12-05T03:15:14.991Z,5.00
2018-12-05T03:17:49.650Z,5.00
2018-12-05T03:20:24.560Z,5.00
2018-12-05T03:22:59.008Z,4.70
2018-12-05T03:25:33.630Z,4.70
2018-12-05T03:28:08.215Z,4.60
2018-12-05T03:30:42.945Z,4.70
2018-12-05T03:33:17.573Z,4.80
2018-12-05T03:35:52.136Z,4.90
2018-12-05T03:38:26.913Z,4.90
2018-12-05T03:41:01.457Z,4.70
2018-12-05T03:43:36.325Z,4.90
2018-12-05T03:46:11.043Z,4.90
2018-12-05T03:48:45.640Z,4.80
2018-12-05T03:51:20.681Z,4.90
2018-12-05T03:53:55.593Z,4.80
2018-12-05T03:56:30.242Z,4.80
2018-12-05T03:59:04.832Z,5.00
2018-12-05T04:01:39.469Z,5.10
2018-12-05T04:04:14.040Z,5.20
2018-12-05T04:06:48.674Z,5.20
2018-12-05T04:09:23.351Z,5.30
2018-12-05T04:11:58.141Z,5.20
2018-12-05T04:14:33.069Z,5.20
2018-12-05T04:17:07.772Z,5.30
2018-12-05T04:19:42.413Z,5.20
2018-12-05T04:22:17.004Z,5.30
2018-12-05T04:24:51.812Z,5.30
2018-12-05T04:27:26.624Z,5.30
2018-12-05T04:30:01.577Z,5.20
2018-12-05T04:32:36.242Z,5.20
2018-12-05T04:35:10.914Z,5.20
2018-12-05T04:37:45.652Z,5.20
2018-12-05T04:40:20.721Z,5.10
2018-12-05T04:42:55.450Z,4.90
2018-12-05T04:45:30.166Z,4.90
2018-12-05T04:48:04.804Z,4.70
2018-12-05T04:50:39.367Z,4.70
2018-12-05T04:53:14.033Z,4.60
2018-12-05T04:55:48.826Z,4.70
2018-12-05T04:58:23.500Z,4.70
2018-12-05T05:00:58.116Z,4.70
2018-12-05T05:03:32.852Z,4.60
2018-12-05T05:06:07.907Z,4.60
2018-12-05T05:08:42.609Z,4.40
2018-12-05T05:11:17.193Z,4.40
2018-12-05T05:13:51.861Z,4.40
2018-12-05T05:16:26.507Z,4.40
2018-12-05T05:19:01.267Z,4.40
2018-12-05T05:21:36.130Z,4.50
2018-12-05T05:24:10.828Z,4.60
2018-12-05T05:26:45.501Z,4.50
2018-12-05T05:29:20.078Z,4.60
2018-12-05T05:31:54.753Z,4.60
2018-12-05T05:34:29.343Z,4.60
2018-12-05T05:37:04.002Z,4.70
2018-12-05T05:39:38.661Z,4.70
2018-12-05T05:42:13.198Z,4.70
2018-12-05T05:44:47.872Z,4.80
2018-12-05T05:47:22.673Z,4.80
2018-12-05T05:49:57.218Z,4.80
2018-12-05T05:52:31.798Z,4.80
2018-12-05T05:55:06.696Z,4.80
2018-12-05T05:57:43.180Z,4.80
2018-12-05T06:00:17.801Z,4.80
2018-12-05T06:02:52.429Z,4.80
2018-12-05T06:05:26.959Z,4.70
2018-12-05T06:08:01.535Z,4.70
2018-12-05T06:10:36.171Z,4.80
2018-12-05T06:13:10.756Z,4.80
2018-12-05T06:15:45.360Z,4.90
2018-12-05T06:18:20.249Z,4.90
2018-12-05T06:20:54.870Z,4.90
2018-12-05T06:23:29.640Z,4.90
2018-12-05T06:26:04.578Z,5.00
2018-12-05T06:28:39.317Z,5.00
2018-12-05T06:31:14.289Z,5.00
2018-12-05T06:33:48.919Z,5.00
2018-12-05T06:36:23.548Z,5.00
2018-12-05T06:38:59.463Z,5.00
2018-12-05T06:41:34.380Z,4.90
2018-12-05T06:44:09.093Z,4.90
2018-12-05T06:46:43.818Z,5.00
2018-12-05T06:49:18.541Z,5.10
2018-12-05T06:51:53.113Z,5.00
2018-12-05T06:54:27.736Z,5.00
2018-12-05T06:57:02.408Z,5.10
2018-12-05T06:59:37.256Z,5.10
2018-12-05T07:02:11.783Z,5.20
2018-12-05T07:04:46.499Z,5.20
2018-12-05T07:07:21.812Z,5.20
2018-12-05T07:09:56.674Z,5.20
2018-12-05T07:12:31.193Z,5.20
2018-12-05T07:15:06.274Z,5.20
2018-12-05T07:17:40.801Z,5.20
2018-12-05T07:20:15.359Z,5.20
2018-12-05T07:22:49.931Z,5.20
2018-12-05T07:25:24.568Z,5.20
2018-12-05T07:27:59.290Z,5.30
2018-12-05T07:30:34.026Z,5.30
2018-12-05T07:33:08.933Z,5.30
2018-12-05T07:35:43.607Z,5.30
2018-12-05T07:38:19.593Z,5.30
2018-12-05T07:40:54.618Z,5.40
2018-12-05T07:43:29.259Z,5.30
2018-12-05T07:46:03.879Z,5.40
2018-12-05T07:48:38.632Z,5.40
2018-12-05T07:51:13.414Z,5.40
2018-12-05T07:53:48.111Z,5.50
2018-12-05T07:56:22.705Z,5.50
2018-12-05T07:58:57.430Z,5.60
2018-12-05T08:01:32.148Z,5.60
2018-12-05T08:04:06.643Z,5.50
2018-12-05T08:06:41.240Z,5.60
2018-12-05T08:09:15.916Z,5.70
2018-12-05T08:11:50.539Z,5.70
2018-12-05T08:14:25.214Z,5.80
2018-12-05T08:16:59.854Z,5.90
2018-12-05T08:19:34.640Z,5.90
2018-12-05T08:22:09.427Z,5.90
2018-12-05T08:24:43.937Z,6.00
2018-12-05T08:27:18.707Z,6.00
2018-12-05T08:29:53.492Z,6.00
2018-12-05T08:32:28.202Z,6.00
2018-12-05T08:35:02.938Z,6.10
2018-12-05T08:37:37.756Z,6.20
2018-12-05T08:40:12.404Z,6.20
2018-12-05T08:42:47.034Z,6.20
2018-12-05T08:45:21.714Z,6.30
2018-12-05T08:47:56.351Z,6.40
2018-12-05T08:50:30.915Z,6.50
2018-12-05T08:53:05.619Z,6.60
2018-12-05T08:55:40.149Z,6.60
2018-12-05T08:58:14.866Z,6.70
2018-12-05T09:00:49.696Z,6.50
2018-12-05T09:03:24.376Z,6.50
2018-12-05T09:05:58.998Z,6.60
2018-12-05T09:08:33.899Z,6.60
2018-12-05T09:11:08.829Z,7.50
2018-12-05T09:13:43.541Z,7.90
2018-12-05T09:16:18.488Z,8.10
2018-12-05T09:18:53.349Z,8.40
2018-12-05T09:21:28.218Z,8.70
2018-12-05T09:24:03.096Z,9.10
2018-12-05T09:26:38.764Z,9.40
2018-12-05T09:29:13.242Z,9.70
2018-12-05T09:31:48.209Z,9.80
2018-12-05T09:34:23.081Z,10.20
2018-12-05T09:36:58.165Z,11.10
2018-12-05T09:39:33.280Z,11.10
2018-12-05T09:42:08.134Z,10.80
2018-12-05T09:44:43.072Z,10.70
2018-12-05T09:47:17.991Z,10.60
2018-12-05T09:49:52.908Z,10.50
2018-12-05T09:52:27.889Z,10.50
2018-12-05T09:55:03.089Z,10.40
2018-12-05T09:57:38.659Z,10.40
2018-12-05T10:00:13.523Z,10.50
2018-12-05T10:02:48.217Z,10.50
2018-12-05T10:05:23.052Z,10.80
2018-12-05T10:07:58.016Z,11.40
2018-12-05T10:10:33.152Z,11.60
2018-12-05T10:13:08.371Z,11.70
2018-12-05T10:15:43.280Z,11.70
2018-12-05T10:18:18.337Z,11.60
2018-12-05T10:20:56.156Z,12.10
2018-12-05T10:23:30.139Z,12.00
2018-12-05T10:26:05.074Z,11.60
2018-12-05T10:28:40.133Z,11.50
2018-12-05T10:31:15.279Z,11.40
2018-12-05T10:33:50.266Z,11.50
2018-12-05T10:36:25.127Z,11.50
2018-12-05T10:39:00.121Z,11.40
2018-12-05T10:41:35.044Z,11.40
2018-12-05T10:44:09.693Z,11.40
2018-12-05T10:46:44.558Z,11.50
2018-12-05T10:49:19.432Z,11.50
2018-12-05T10:51:54.465Z,11.60
2018-12-05T10:54:29.397Z,11.60
2018-12-05T10:57:04.498Z,11.70
2018-12-05T10:59:39.577Z,11.60
2018-12-05T11:02:19.748Z,11.80
2018-12-05T11:04:59.953Z,11.90
2018-12-05T11:07:40.283Z,12.10
2018-12-05T11:10:20.394Z,12.70
2018-12-05T11:13:00.449Z,13.30
2018-12-05T11:15:40.680Z,12.30
2018-12-05T11:21:23.707Z,13.50
2018-12-05T11:24:00.787Z,13.50
2018-12-05T11:26:36.071Z,13.50
2018-12-05T11:29:11.091Z,13.60
2018-12-05T11:31:46.121Z,13.70
2018-12-05T11:34:20.911Z,13.90
2018-12-05T11:36:55.953Z,14.40
2018-12-05T11:39:30.614Z,14.70
2018-12-05T11:42:05.573Z,15.20
2018-12-05T11:44:40.395Z,14.30
2018-12-05T11:47:15.609Z,14.80
2018-12-05T11:49:51.020Z,15.60
2018-12-05T11:52:26.346Z,15.30
2018-12-05T11:55:01.466Z,15.70
2018-12-05T11:57:36.279Z,15.30
2018-12-05T12:00:11.589Z,18.40
2018-12-05T12:02:46.841Z,16.90
2018-12-05T12:05:22.841Z,15.70
2018-12-05T12:07:58.046Z,14.30
2018-12-05T12:10:38.165Z,13.60
2018-12-05T12:13:12.922Z,13.60
2018-12-05T12:15:47.705Z,13.40
2018-12-05T12:18:22.447Z,13.10
2018-12-05T12:20:57.270Z,12.90
2018-12-05T12:23:31.909Z,12.90
2018-12-05T12:26:06.488Z,13.20
2018-12-05T12:28:41.464Z,13.30
2018-12-05T12:31:16.335Z,15.30
2018-12-05T12:33:51.069Z,16.40
2018-12-05T12:36:26.019Z,16.60
2018-12-05T12:39:00.936Z,16.80
2018-12-05T12:41:36.044Z,17.10
2018-12-05T12:44:11.862Z,17.50
2018-12-05T12:46:46.629Z,18.00
2018-12-05T12:49:21.844Z,18.50
2018-12-05T12:51:57.186Z,16.30
2018-12-05T12:54:32.354Z,16.50
2018-12-05T12:57:08.029Z,16.50
2018-12-05T12:59:43.284Z,16.40
2018-12-05T13:02:18.918Z,15.80
2018-12-05T13:04:54.310Z,14.90
2018-12-05T13:07:29.572Z,14.80
2018-12-05T13:10:05.812Z,14.90
2018-12-05T13:12:41.149Z,16.60
2018-12-05T13:15:16.326Z,17.60
2018-12-05T13:17:51.564Z,17.40
2018-12-05T13:20:26.771Z,18.50
2018-12-05T13:23:01.657Z,18.50
2018-12-05T13:25:36.900Z,21.70
2018-12-05T13:28:12.213Z,19.90
2018-12-05T13:30:47.519Z,18.60
2018-12-05T13:33:22.743Z,17.40
2018-12-05T13:35:57.881Z,16.30
2018-12-05T13:38:33.173Z,15.70
2018-12-05T13:41:08.338Z,15.00
2018-12-05T13:43:43.734Z,14.20
2018-12-05T13:46:18.504Z,13.70
2018-12-05T13:48:53.174Z,13.60
2018-12-05T13:51:27.844Z,13.60
2018-12-05T13:54:02.433Z,13.40
2018-12-05T13:56:37.081Z,13.40
2018-12-05T13:59:11.636Z,13.10
2018-12-05T14:01:47.062Z,13.10
2018-12-05T14:04:21.757Z,13.00
2018-12-05T14:06:56.447Z,12.90
2018-12-05T14:09:31.057Z,12.60
2018-12-05T14:12:07.583Z,12.50
2018-12-05T14:14:42.236Z,12.50
2018-12-05T14:17:16.915Z,12.50
2018-12-05T14:19:51.401Z,12.30
2018-12-05T14:22:26.428Z,12.20
2018-12-05T14:25:01.428Z,12.80
2018-12-05T14:27:36.073Z,13.10
2018-12-05T14:30:10.974Z,12.60
2018-12-05T14:32:45.659Z,12.30
2018-12-05T14:35:20.634Z,12.10
2018-12-05T14:37:55.450Z,12.00
2018-12-05T14:40:30.172Z,12.00
2018-12-05T14:43:05.083Z,11.80
2018-12-05T14:45:39.948Z,11.50
2018-12-05T14:48:14.528Z,11.00
2018-12-05T14:50:49.089Z,10.60
2018-12-05T14:53:23.640Z,10.60
2018-12-05T14:55:58.357Z,10.60
2018-12-05T14:58:32.892Z,10.70
2018-12-05T15:01:07.619Z,10.50
2018-12-05T15:03:42.249Z,10.20
2018-12-05T15:06:16.784Z,10.20
2018-12-05T15:08:51.518Z,10.20
2018-12-05T15:11:26.150Z,9.80
2018-12-05T15:14:00.893Z,9.80
2018-12-05T15:16:35.590Z,9.80
2018-12-05T15:19:10.124Z,9.80
2018-12-05T15:21:44.706Z,9.80
2018-12-05T15:24:19.683Z,9.70
2018-12-05T15:26:54.262Z,9.70
2018-12-05T15:29:29.096Z,9.70
2018-12-05T15:32:03.797Z,9.60
2018-12-05T15:34:38.704Z,9.60
2018-12-05T15:37:13.425Z,9.50
2018-12-05T15:39:48.215Z,9.40
2018-12-05T15:42:23.908Z,9.40
2018-12-05T15:44:58.624Z,9.50
2018-12-05T15:47:33.379Z,9.40
2018-12-05T15:50:08.426Z,9.30
2018-12-05T15:52:43.168Z,9.30
2018-12-05T15:55:17.877Z,9.40
2018-12-05T15:57:52.408Z,9.40
2018-12-05T16:00:28.187Z,9.30
2018-12-05T16:03:03.272Z,9.30
2018-12-05T16:05:38.143Z,9.30
2018-12-05T16:08:12.728Z,9.20
2018-12-05T16:10:47.241Z,9.30
2018-12-05T16:13:21.900Z,9.20
2018-12-05T16:15:56.466Z,9.10
2018-12-05T16:18:31.200Z,9.00
2018-12-05T16:21:05.755Z,9.00
2018-12-05T16:23:40.448Z,9.00
2018-12-05T16:26:15.068Z,9.00
2018-12-05T16:28:49.781Z,9.00
2018-12-05T16:31:24.345Z,9.00
2018-12-05T16:33:59.165Z,8.90
2018-12-05T16:36:33.710Z,8.90
2018-12-05T16:39:09.099Z,8.90
2018-12-05T16:41:43.689Z,8.90
2018-12-05T16:44:18.696Z,8.90
2018-12-05T16:46:53.345Z,8.80
2018-12-05T16:49:28.123Z,8.90
2018-12-05T16:52:02.961Z,8.90
2018-12-05T16:54:37.920Z,8.80
2018-12-05T16:57:12.717Z,8.90
2018-12-05T16:59:47.400Z,8.80
2018-12-05T17:02:21.931Z,8.80
2018-12-05T17:04:56.543Z,8.80
2018-12-05T17:07:31.274Z,8.80
2018-12-05T17:10:06.623Z,8.80
2018-12-05T17:12:41.405Z,8.70
2018-12-05T17:15:16.128Z,8.70
2018-12-05T17:17:50.833Z,8.60
2018-12-05T17:20:25.673Z,8.60
2018-12-05T17:23:00.359Z,8.50
2018-12-05T17:25:35.073Z,8.50
2018-12-05T17:28:09.812Z,8.50
2018-12-05T17:30:44.579Z,8.50
2018-12-05T17:33:19.102Z,8.50
2018-12-05T17:35:53.713Z,8.50
2018-12-05T17:38:28.267Z,8.40
2018-12-05T17:41:02.996Z,8.30
2018-12-05T17:43:37.710Z,8.40
2018-12-05T17:46:12.234Z,8.30
2018-12-05T17:48:46.959Z,8.30
2018-12-05T17:51:21.581Z,8.20
2018-12-05T17:53:56.319Z,8.20
2018-12-05T17:56:31.133Z,8.10
2018-12-05T17:59:06.631Z,8.10
2018-12-05T18:01:41.196Z,8.10
2018-12-05T18:04:15.927Z,8.10
2018-12-05T18:06:50.672Z,8.10
2018-12-05T18:09:25.313Z,8.10
2018-12-05T18:11:59.876Z,8.00
2018-12-05T18:14:34.697Z,8.00
2018-12-05T18:17:09.622Z,8.00
2018-12-05T18:19:44.472Z,8.00
2018-12-05T18:22:19.207Z,7.90
2018-12-05T18:24:53.837Z,8.00
2018-12-05T18:27:28.431Z,8.00
2018-12-05T18:30:04.551Z,8.00
2018-12-05T18:32:39.553Z,8.00
2018-12-05T18:35:14.553Z,8.00
2018-12-05T18:37:49.252Z,8.00
2018-12-05T18:40:23.951Z,7.90
2018-12-05T18:42:58.724Z,7.90
2018-12-05T18:45:33.651Z,7.90
2018-12-05T18:48:08.228Z,7.80
2018-12-05T18:50:42.786Z,7.70
2018-12-05T18:53:17.428Z,7.60
2018-12-05T18:55:52.151Z,7.80
2018-12-05T18:58:26.914Z,7.70
2018-12-05T19:01:01.479Z,7.80
2018-12-05T19:03:36.025Z,7.70
2018-12-05T19:06:10.911Z,7.70
2018-12-05T19:08:45.903Z,7.80
2018-12-05T19:11:20.630Z,7.70
2018-12-05T19:14:00.739Z,7.80
2018-12-05T19:16:35.320Z,7.80
2018-12-05T19:19:10.298Z,7.70
2018-12-05T19:21:44.832Z,7.70
2018-12-05T19:24:19.688Z,7.70
2018-12-05T19:26:54.551Z,7.60
2018-12-05T19:29:29.183Z,7.50
2018-12-05T19:32:03.922Z,7.60
2018-12-05T19:34:38.687Z,7.60
2018-12-05T19:37:13.451Z,7.60
2018-12-05T19:39:48.109Z,7.50
2018-12-05T19:42:22.841Z,7.60
2018-12-05T19:44:57.495Z,7.60
2018-12-05T19:47:32.035Z,7.50
2018-12-05T19:50:07.188Z,7.50
2018-12-05T19:52:42.513Z,7.50
2018-12-05T19:55:17.529Z,7.50
2018-12-05T19:57:52.364Z,7.50
2018-12-05T20:00:27.155Z,7.50
2018-12-05T20:03:01.688Z,7.20
2018-12-05T20:05:36.333Z,7.30
2018-12-05T20:08:10.918Z,7.40
2018-12-05T20:10:45.575Z,7.40
2018-12-05T20:13:20.407Z,7.10
2018-12-05T20:15:55.111Z,7.20
2018-12-05T20:18:29.980Z,7.30
2018-12-05T20:21:04.689Z,7.40
2018-12-05T20:23:39.326Z,7.30
2018-12-05T20:26:13.997Z,7.30
2018-12-05T20:28:48.598Z,7.40
2018-12-05T20:31:23.440Z,7.40
2018-12-05T20:33:58.057Z,7.30
2018-12-05T20:36:33.248Z,7.30
2018-12-05T20:39:10.078Z,7.30
2018-12-05T20:41:44.821Z,7.30
2018-12-05T20:44:19.543Z,7.80
2018-12-05T20:46:54.502Z,8.20
2018-12-05T20:49:29.540Z,8.30
2018-12-05T20:52:04.139Z,8.50
2018-12-05T20:54:38.777Z,8.60
2018-12-05T20:57:13.438Z,8.00
2018-12-05T20:59:48.205Z,7.70
2018-12-05T21:02:23.249Z,7.60
2018-12-05T21:04:58.203Z,8.10
2018-12-05T21:07:33.528Z,8.40
2018-12-05T21:10:08.432Z,8.40
2018-12-05T21:12:43.598Z,8.60
2018-12-05T21:15:18.608Z,8.60
2018-12-05T21:17:53.543Z,8.50
2018-12-05T21:20:28.614Z,8.60
2018-12-05T21:23:03.473Z,8.60
2018-12-05T21:25:38.347Z,8.40
2018-12-05T21:28:13.285Z,8.50
2018-12-05T21:30:48.191Z,8.20
2018-12-05T21:33:23.169Z,8.20
2018-12-05T21:35:58.025Z,8.50
2018-12-05T21:38:33.159Z,8.40
2018-12-05T21:41:08.072Z,8.20
2018-12-05T21:43:43.238Z,8.30
2018-12-05T21:46:18.088Z,8.30
2018-12-05T21:48:52.932Z,8.50
2018-12-05T21:51:27.859Z,8.60
2018-12-05T21:54:02.801Z,8.60
2018-12-05T21:56:37.698Z,8.70
2018-12-05T21:59:12.629Z,8.80
2018-12-05T22:01:47.592Z,8.70
2018-12-05T22:04:23.105Z,8.60
2018-12-05T22:06:57.859Z,8.60
2018-12-05T22:09:32.962Z,8.70
2018-12-05T22:12:07.776Z,8.70
2018-12-05T22:14:42.808Z,8.70
2018-12-05T22:17:17.664Z,8.80
2018-12-05T22:19:52.510Z,8.90
2018-12-05T22:22:27.493Z,8.90
2018-12-05T22:25:02.525Z,8.90
2018-12-05T22:27:37.363Z,8.80
2018-12-05T22:30:12.345Z,8.80
2018-12-05T22:32:47.238Z,8.90
2018-12-05T22:35:22.097Z,8.90
2018-12-05T22:37:56.991Z,8.80
2018-12-05T22:40:32.223Z,8.70
2018-12-05T22:43:07.087Z,8.80
2018-12-05T22:45:42.032Z,8.90
2018-12-05T22:48:16.780Z,8.90
2018-12-05T22:50:51.751Z,8.90
2018-12-05T22:53:26.714Z,9.00
2018-12-05T22:56:01.745Z,9.00
2018-12-05T22:58:36.771Z,8.90
2018-12-05T23:01:11.757Z,9.00
2018-12-05T23:03:46.846Z,9.10
2018-12-05T23:06:21.773Z,9.00
2018-12-05T23:08:57.107Z,9.00
2018-12-05T23:11:31.856Z,9.00
2018-12-05T23:14:06.824Z,8.80
2018-12-05T23:16:41.475Z,8.80
2018-12-05T23:19:16.423Z,8.90
2018-12-05T23:21:51.454Z,9.00
2018-12-05T23:24:26.275Z,9.10
2018-12-05T23:27:01.146Z,9.00
2018-12-05T23:29:36.408Z,9.00
2018-12-05T23:32:11.277Z,8.50
2018-12-05T23:34:46.028Z,8.80
2018-12-05T23:37:20.985Z,8.90
2018-12-05T23:39:55.967Z,8.90
2018-12-05T23:42:30.806Z,8.90
2018-12-05T23:45:05.974Z,9.00
2018-12-05T23:47:40.978Z,9.10
2018-12-05T23:50:15.912Z,9.10
2018-12-05T23:52:50.703Z,9.00
2018-12-05T23:55:25.617Z,9.00
2018-12-05T23:58:00.581Z,9.10
